Time;durP1;ratioP1;P1;durP2;ratioP2;P2;SDS_P1;SDS_P2;PMS_P1;PMS_P2;Temp;Humidity;BMP_temperature;BMP_pressure;BME280_temperature;BME280_humidity;BME280_pressure;Samples;Min_cycle;Max_cycle;Signal;HPM_P1;HPM_P2
2022/04/03 00:01:41;;;;;;;6.90;6.20;;;2.80;94.10;;;;;;4937065;29;20485;-78
2022/04/03 00:04:10;;;;;;;8.53;5.90;;;2.80;94.10;;;;;;4936476;29;20897;-78
2022/04/03 00:06:38;;;;;;;6.67;6.00;;;2.80;94.20;;;;;;4936811;29;20462;-78
2022/04/03 00:09:06;;;;;;;7.60;6.13;;;2.90;94.20;;;;;;4936707;29;20525;-78
2022/04/03 00:11:34;;;;;;;6.63;6.03;;;2.80;94.20;;;;;;4925952;29;20452;-78
2022/04/03 00:14:03;;;;;;;6.13;5.43;;;2.80;94.20;;;;;;4937722;29;20543;-77
2022/04/03 00:16:33;;;;;;;6.80;5.33;;;2.80;94.30;;;;;;4918944;29;20460;-78
2022/04/03 00:19:02;;;;;;;5.97;4.90;;;2.80;94.30;;;;;;4919051;29;20483;-77
2022/04/03 00:21:30;;;;;;;5.20;4.70;;;2.80;94.40;;;;;;4933133;29;20463;-77
2022/04/03 00:23:58;;;;;;;5.33;4.10;;;2.80;94.40;;;;;;4936669;29;20552;-78
2022/04/03 00:26:27;;;;;;;6.20;4.60;;;2.80;94.50;;;;;;4947284;28;20459;-77
2022/04/03 00:28:55;;;;;;;5.17;4.17;;;2.80;94.50;;;;;;4936376;29;20444;-78
2022/04/03 00:31:24;;;;;;;4.43;3.90;;;2.80;94.60;;;;;;4937817;28;20444;-78
2022/04/03 00:33:53;;;;;;;8.33;4.47;;;2.80;94.70;;;;;;4936043;29;20460;-78
2022/04/03 00:36:22;;;;;;;4.40;4.00;;;2.80;94.70;;;;;;4936556;29;20502;-78
2022/04/03 00:38:51;;;;;;;5.37;4.43;;;2.80;94.80;;;;;;4936274;29;20483;-78
2022/04/03 00:41:20;;;;;;;4.60;4.20;;;2.80;94.80;;;;;;4935923;29;20443;-78
2022/04/03 00:43:49;;;;;;;4.50;4.10;;;2.80;94.90;;;;;;4935318;29;20473;-78
2022/04/03 00:46:21;;;;;;;5.90;3.77;;;2.80;94.90;;;;;;4936367;29;21054;-78
2022/04/03 00:48:50;;;;;;;5.17;4.10;;;2.80;95.00;;;;;;4936262;29;20458;-77
2022/04/03 00:51:20;;;;;;;6.30;3.97;;;2.80;95.00;;;;;;4931598;29;20515;-78
2022/04/03 00:53:48;;;;;;;5.73;3.53;;;2.80;95.00;;;;;;4921733;29;20454;-77
2022/04/03 00:56:17;;;;;;;5.27;4.20;;;2.80;95.10;;;;;;4935606;29;20474;-77
2022/04/03 00:58:45;;;;;;;5.17;4.27;;;2.80;95.10;;;;;;4936149;29;20476;-78
2022/04/03 01:01:13;;;;;;;5.37;3.90;;;2.80;95.10;;;;;;4936666;29;20483;-77
2022/04/03 01:03:42;;;;;;;4.80;4.10;;;2.80;95.10;;;;;;4936975;29;20519;-77
2022/04/03 01:06:10;;;;;;;6.17;3.77;;;2.80;95.10;;;;;;4936211;29;20476;-78
2022/04/03 01:08:42;;;;;;;4.47;3.70;;;2.80;95.10;;;;;;4924806;29;20464;-77
2022/04/03 01:11:12;;;;;;;5.90;4.33;;;2.80;95.10;;;;;;4916969;29;20942;-77
2022/04/03 01:13:46;;;;;;;4.37;3.97;;;2.80;95.20;;;;;;4935630;29;20555;-77
2022/04/03 01:16:15;;;;;;;6.27;4.50;;;2.70;95.10;;;;;;4936977;29;20473;-78
2022/04/03 01:18:43;;;;;;;5.57;4.37;;;2.70;95.10;;;;;;4935967;29;20530;-78
2022/04/03 01:21:12;;;;;;;7.93;4.40;;;2.70;95.10;;;;;;4945911;28;20476;-77
2022/04/03 01:23:41;;;;;;;3.83;2.80;;;2.70;95.10;;;;;;4918476;29;20444;-77
2022/04/03 01:26:12;;;;;;;3.73;3.40;;;2.60;95.00;;;;;;4924594;29;20475;-77
2022/04/03 01:28:40;;;;;;;5.40;3.93;;;2.60;95.00;;;;;;4940510;29;20900;-78
2022/04/03 01:31:09;;;;;;;4.57;3.80;;;2.60;95.00;;;;;;4921092;29;20467;-78
2022/04/03 01:33:37;;;;;;;5.40;4.90;;;2.50;95.30;;;;;;4920669;29;20836;-77
2022/04/03 01:36:06;;;;;;;6.23;4.17;;;2.50;95.00;;;;;;4936645;29;20483;-78
2022/04/03 01:38:34;;;;;;;4.63;4.20;;;2.50;95.00;;;;;;4938627;29;20451;-77
2022/04/03 01:41:03;;;;;;;4.73;4.23;;;2.40;95.00;;;;;;4939739;29;20497;-77
2022/04/03 01:43:32;;;;;;;9.50;4.80;;;2.40;95.00;;;;;;4941017;29;20446;-78
2022/04/03 01:46:00;;;;;;;7.70;5.60;;;2.40;95.10;;;;;;4938760;29;20481;-78
2022/04/03 01:48:29;;;;;;;6.10;4.37;;;2.30;95.10;;;;;;4940804;29;20447;-77
2022/04/03 01:50:58;;;;;;;5.77;4.00;;;2.30;95.10;;;;;;4939479;29;20497;-78
2022/04/03 01:53:26;;;;;;;4.80;4.23;;;2.30;95.10;;;;;;4939442;29;20464;-78
2022/04/03 01:55:59;;;;;;;5.80;3.73;;;2.30;95.10;;;;;;4934137;29;20475;-77
2022/04/03 01:58:28;;;;;;;6.30;4.53;;;2.20;95.10;;;;;;4939255;29;20558;-78
2022/04/03 02:00:57;;;;;;;5.27;4.13;;;2.20;95.10;;;;;;4939134;29;20481;-78
2022/04/03 02:03:26;;;;;;;5.30;4.33;;;2.20;95.20;;;;;;4955177;29;20586;-78
2022/04/03 02:05:57;;;;;;;6.27;4.27;;;2.10;95.10;;;;;;4924773;29;20551;-78
2022/04/03 02:08:26;;;;;;;7.50;4.60;;;2.10;95.20;;;;;;4939087;29;20477;-78
2022/04/03 02:10:54;;;;;;;6.17;4.53;;;2.10;95.20;;;;;;4938230;29;20945;-77
2022/04/03 02:13:23;;;;;;;5.60;3.83;;;2.10;95.20;;;;;;4939990;29;20445;-78
2022/04/03 02:15:51;;;;;;;6.20;4.63;;;2.00;95.20;;;;;;4939462;29;20545;-78
2022/04/03 02:18:21;;;;;;;4.73;4.23;;;2.00;95.20;;;;;;4939851;29;20456;-77
2022/04/03 02:20:49;;;;;;;8.60;4.50;;;2.00;95.20;;;;;;4939559;29;20477;-77
2022/04/03 02:23:17;;;;;;;5.23;3.77;;;2.00;95.20;;;;;;4938738;29;20447;-78
2022/04/03 02:25:49;;;;;;;6.43;4.60;;;2.00;95.30;;;;;;4938753;29;20483;-77
2022/04/03 02:28:17;;;;;;;7.07;6.13;;;1.90;95.50;;;;;;4936482;29;20495;-78
2022/04/03 02:30:46;;;;;;;5.47;4.60;;;1.90;95.30;;;;;;4938688;29;20475;-78
2022/04/03 02:33:15;;;;;;;6.27;5.30;;;1.80;95.20;;;;;;4938490;29;20448;-78
2022/04/03 02:35:44;;;;;;;6.80;5.97;;;1.80;95.50;;;;;;4936336;29;20474;-77
2022/04/03 02:38:15;;;;;;;5.23;4.77;;;1.80;95.30;;;;;;4938383;29;20466;-77
2022/04/03 02:40:44;;;;;;;5.73;5.13;;;1.70;95.20;;;;;;4940115;29;20834;-77
2022/04/03 02:43:12;;;;;;;6.07;5.47;;;1.70;95.30;;;;;;4937699;29;21017;-77
2022/04/03 02:45:41;;;;;;;6.80;6.07;;;1.70;95.30;;;;;;4939982;29;20476;-78
2022/04/03 02:48:10;;;;;;;5.50;5.00;;;1.60;95.20;;;;;;4938560;29;20490;-79
2022/04/03 02:50:39;;;;;;;6.73;6.00;;;1.60;95.30;;;;;;4936147;29;20951;-78
2022/04/03 02:53:08;;;;;;;6.77;5.20;;;1.50;95.20;;;;;;4938184;29;20563;-78
2022/04/03 02:55:36;;;;;;;7.83;5.27;;;1.50;95.30;;;;;;4938199;29;20510;-78
2022/04/03 02:58:05;;;;;;;5.43;4.93;;;1.50;95.30;;;;;;4937938;29;20464;-77
2022/04/03 03:00:35;;;;;;;6.90;5.53;;;1.40;95.30;;;;;;4942716;28;20475;-78
2022/04/03 03:03:06;;;;;;;7.50;6.03;;;1.40;95.30;;;;;;4938199;29;20576;-78
2022/04/03 03:05:35;;;;;;;6.80;5.20;;;1.40;95.40;;;;;;4938182;29;20535;-78
2022/04/03 03:08:04;;;;;;;6.33;5.20;;;1.30;95.30;;;;;;4939526;29;20447;-77
2022/04/03 03:10:34;;;;;;;5.00;4.50;;;1.30;95.40;;;;;;4939224;29;20547;-77
2022/04/03 03:13:02;;;;;;;8.23;4.90;;;1.30;95.40;;;;;;4944578;28;20444;-77
2022/04/03 03:15:30;;;;;;;6.83;5.47;;;1.20;95.40;;;;;;4965410;28;20480;-77
2022/04/03 03:17:58;;;;;;;7.90;5.70;;;1.20;95.40;;;;;;4952266;29;20554;-77
2022/04/03 03:20:27;;;;;;;6.60;4.77;;;1.20;95.40;;;;;;4949457;29;20503;-77
2022/04/03 03:22:55;;;;;;;6.30;5.00;;;1.20;95.40;;;;;;4945344;29;20449;-77
2022/04/03 03:25:28;;;;;;;6.03;4.67;;;1.10;95.40;;;;;;4942382;29;20980;-77
2022/04/03 03:27:58;;;;;;;6.43;4.10;;;1.10;95.40;;;;;;4940655;29;20956;-78
2022/04/03 03:30:26;;;;;;;7.47;5.90;;;1.10;95.40;;;;;;4939829;29;20475;-77
2022/04/03 03:32:55;;;;;;;6.47;5.20;;;1.10;95.40;;;;;;4937755;29;20488;-77
2022/04/03 03:35:23;;;;;;;7.50;4.37;;;1.00;95.30;;;;;;4937228;29;20477;-77
2022/04/03 03:37:51;;;;;;;5.50;4.80;;;1.00;95.30;;;;;;4937559;29;20559;-78
2022/04/03 03:40:19;;;;;;;6.30;4.30;;;1.00;95.30;;;;;;4937229;29;20490;-77
2022/04/03 03:42:54;;;;;;;6.90;5.40;;;1.00;95.40;;;;;;4937704;29;20443;-78
2022/04/03 03:45:24;;;;;;;9.60;5.63;;;0.90;95.30;;;;;;4938299;29;20470;-77
2022/04/03 03:47:52;;;;;;;6.40;5.47;;;0.90;95.30;;;;;;4938473;29;20762;-78
2022/04/03 03:50:20;;;;;;;8.50;5.70;;;0.90;95.40;;;;;;4936090;29;20502;-77
2022/04/03 03:52:49;;;;;;;4.83;4.30;;;0.90;95.40;;;;;;4933652;29;20801;-76
2022/04/03 03:55:17;;;;;;;6.47;4.80;;;0.80;95.30;;;;;;4937081;29;20479;-76
2022/04/03 03:57:46;;;;;;;6.90;4.57;;;0.80;95.30;;;;;;4936367;29;20487;-78
2022/04/03 04:00:15;;;;;;;5.50;4.70;;;0.80;95.30;;;;;;4936787;29;20476;-78
2022/04/03 04:02:44;;;;;;;5.50;4.13;;;0.80;95.40;;;;;;4937080;29;20900;-77
2022/04/03 04:05:13;;;;;;;7.57;4.83;;;0.80;95.40;;;;;;4938437;29;20468;-78
2022/04/03 04:07:43;;;;;;;5.60;4.17;;;0.70;95.30;;;;;;4938130;29;20543;-77
2022/04/03 04:10:13;;;;;;;6.37;4.47;;;0.70;95.40;;;;;;4939427;29;20547;-77
2022/04/03 04:12:41;;;;;;;5.17;4.03;;;0.70;95.40;;;;;;4917688;29;20484;-77
2022/04/03 04:15:12;;;;;;;6.17;4.17;;;0.70;95.40;;;;;;4927942;29;20534;-77
2022/04/03 04:17:45;;;;;;;5.47;4.47;;;0.70;95.40;;;;;;4937005;29;20866;-78
2022/04/03 04:20:15;;;;;;;5.33;4.47;;;0.70;95.40;;;;;;4930724;29;20507;-76
2022/04/03 04:22:47;;;;;;;4.67;4.07;;;0.70;95.50;;;;;;4936543;29;20547;-78
2022/04/03 04:25:16;;;;;;;6.10;4.77;;;0.70;95.50;;;;;;4936629;29;20515;-78
2022/04/03 04:27:45;;;;;;;5.30;4.20;;;0.70;95.50;;;;;;4935822;29;20937;-77
2022/04/03 04:30:14;;;;;;;5.00;4.20;;;0.60;95.50;;;;;;4952490;28;21056;-77
2022/04/03 04:32:45;;;;;;;5.20;4.37;;;0.60;95.60;;;;;;4936497;29;20451;-77
2022/04/03 04:35:14;;;;;;;6.47;4.50;;;0.60;95.60;;;;;;4934637;29;20491;-77
2022/04/03 04:37:42;;;;;;;5.20;4.57;;;0.60;95.60;;;;;;4936528;29;20506;-78
2022/04/03 04:40:11;;;;;;;5.33;4.57;;;0.60;95.60;;;;;;4936392;29;20546;-77
2022/04/03 04:42:40;;;;;;;7.40;4.40;;;0.60;95.70;;;;;;4937271;29;20462;-78
2022/04/03 04:45:09;;;;;;;6.43;4.20;;;0.60;95.70;;;;;;4937516;29;20472;-78
2022/04/03 04:47:48;;;;;;;6.30;4.43;;;0.60;95.70;;;;;;4936402;29;20465;-78
2022/04/03 04:50:18;;;;;;;4.97;4.57;;;0.60;95.70;;;;;;4929119;29;20468;-78
2022/04/03 04:52:47;;;;;;;6.83;4.30;;;0.60;95.70;;;;;;4917045;29;20551;-78
2022/04/03 04:55:15;;;;;;;5.00;4.50;;;0.60;95.70;;;;;;4931924;29;20507;-78
2022/04/03 04:57:52;;;;;;;5.33;4.50;;;0.60;95.80;;;;;;4935564;29;20514;-78
2022/04/03 05:00:22;;;;;;;6.10;4.83;;;0.60;95.80;;;;;;4937333;29;20428;-77
2022/04/03 05:02:51;;;;;;;6.73;4.07;;;0.60;95.80;;;;;;4927612;29;20462;-78
2022/04/03 05:05:21;;;;;;;5.93;4.13;;;0.60;95.90;;;;;;4929404;29;20973;-77
2022/04/03 05:07:52;;;;;;;4.60;4.20;;;0.60;95.90;;;;;;4935532;29;20841;-77
2022/04/03 05:10:21;;;;;;;6.47;4.80;;;0.70;96.00;;;;;;4935540;29;20472;-78
2022/04/03 05:12:49;;;;;;;5.03;4.63;;;0.70;96.10;;;;;;4937068;29;20444;-77
2022/04/03 05:15:18;;;;;;;5.93;5.10;;;0.70;96.10;;;;;;4951562;28;20487;-78
2022/04/03 05:17:47;;;;;;;6.37;5.03;;;0.70;96.10;;;;;;4952196;29;20451;-78
2022/04/03 05:20:17;;;;;;;5.83;4.90;;;0.70;96.20;;;;;;4936124;29;20467;-77
2022/04/03 05:22:46;;;;;;;5.13;4.40;;;0.80;96.20;;;;;;4937042;29;20483;-77
2022/04/03 05:25:14;;;;;;;5.93;5.00;;;0.80;96.30;;;;;;4937488;29;20973;-77
2022/04/03 05:27:44;;;;;;;5.40;4.90;;;0.80;96.30;;;;;;4936518;29;20554;-78
2022/04/03 05:30:14;;;;;;;6.87;4.97;;;0.80;96.30;;;;;;4934982;29;20460;-78
2022/04/03 05:32:42;;;;;;;6.00;5.20;;;0.80;96.40;;;;;;4937485;29;20476;-78
2022/04/03 05:35:13;;;;;;;6.20;5.13;;;0.80;96.40;;;;;;4935712;29;20481;-78
2022/04/03 05:37:45;;;;;;;4.93;4.43;;;0.80;96.50;;;;;;4937431;29;20443;-78
2022/04/03 05:40:15;;;;;;;5.20;4.70;;;0.80;96.50;;;;;;4927402;29;20460;-78
2022/04/03 05:42:44;;;;;;;7.33;4.93;;;0.80;96.50;;;;;;4935714;29;21017;-78
2022/04/03 05:45:13;;;;;;;5.43;4.53;;;0.80;96.60;;;;;;4948830;28;20498;-78
2022/04/03 05:47:42;;;;;;;5.93;4.77;;;0.80;96.70;;;;;;4937176;29;20473;-78
2022/04/03 05:50:14;;;;;;;7.60;4.30;;;0.80;96.60;;;;;;4935690;29;20481;-79
2022/04/03 05:52:47;;;;;;;4.93;4.50;;;0.90;96.90;;;;;;4928702;29;20456;-78
2022/04/03 05:55:16;;;;;;;5.20;4.70;;;0.90;96.70;;;;;;4935718;29;20870;-78
2022/04/03 05:57:46;;;;;;;6.07;4.70;;;0.90;96.80;;;;;;4935632;29;20507;-77
2022/04/03 06:00:17;;;;;;;7.33;4.80;;;0.90;96.80;;;;;;4935167;29;20507;-78
2022/04/03 06:02:53;;;;;;;5.43;4.73;;;1.00;96.90;;;;;;4935969;29;20479;-78
2022/04/03 06:05:23;;;;;;;6.30;4.60;;;1.10;97.00;;;;;;4936877;29;20490;-78
2022/04/03 06:07:53;;;;;;;5.43;4.57;;;1.10;97.00;;;;;;4935752;29;20500;-78
2022/04/03 06:10:23;;;;;;;4.83;4.30;;;1.20;97.10;;;;;;4936425;29;20647;-77
2022/04/03 06:12:56;;;;;;;4.73;4.33;;;1.20;97.10;;;;;;4946363;28;20512;-77
2022/04/03 06:15:25;;;;;;;5.90;4.90;;;1.30;97.20;;;;;;4935777;29;20471;-78
2022/04/03 06:17:54;;;;;;;7.63;4.10;;;1.30;97.20;;;;;;4940568;29;20536;-78
2022/04/03 06:20:23;;;;;;;5.10;4.20;;;1.30;97.30;;;;;;4939980;29;20538;-77
2022/04/03 06:22:53;;;;;;;5.00;4.37;;;1.40;97.40;;;;;;4938954;29;20478;-78
2022/04/03 06:25:22;;;;;;;6.10;4.87;;;1.40;97.40;;;;;;4938232;29;20479;-77
2022/04/03 06:27:52;;;;;;;4.73;4.23;;;1.50;97.50;;;;;;4954800;28;20507;-78
2022/04/03 06:30:23;;;;;;;4.53;3.53;;;1.50;97.60;;;;;;4938764;29;20526;-78
2022/04/03 06:32:52;;;;;;;6.80;3.60;;;1.50;97.60;;;;;;4937244;29;20451;-78
2022/04/03 06:35:20;;;;;;;4.70;3.90;;;1.60;97.80;;;;;;4938809;29;20482;-77
2022/04/03 06:37:48;;;;;;;4.37;3.97;;;1.60;97.80;;;;;;4938400;29;20457;-79
2022/04/03 06:40:18;;;;;;;4.37;3.57;;;1.70;98.00;;;;;;4927710;29;20514;-78
2022/04/03 06:42:47;;;;;;;4.80;3.37;;;1.80;98.10;;;;;;4935875;29;20472;-78
2022/04/03 06:45:16;;;;;;;4.93;3.60;;;1.80;98.10;;;;;;4933056;29;20480;-77
2022/04/03 06:47:45;;;;;;;5.60;3.83;;;1.90;98.20;;;;;;4937597;29;20519;-77
2022/04/03 06:50:14;;;;;;;4.00;3.40;;;1.90;98.30;;;;;;4938839;28;20457;-77
2022/04/03 06:52:45;;;;;;;3.83;3.43;;;1.90;98.40;;;;;;4935206;29;20462;-78
2022/04/03 06:55:13;;;;;;;4.07;3.43;;;2.00;98.50;;;;;;4921506;29;20460;-78
2022/04/03 06:57:43;;;;;;;5.67;3.87;;;2.10;98.60;;;;;;4919650;29;20462;-79
2022/04/03 07:00:13;;;;;;;4.77;3.50;;;2.30;98.80;;;;;;4930628;29;20456;-78
2022/04/03 07:02:41;;;;;;;4.80;4.20;;;2.50;98.90;;;;;;4940138;29;20464;-78
2022/04/03 07:05:10;;;;;;;5.60;3.93;;;2.60;99.00;;;;;;4931823;29;20478;-78
2022/04/03 07:07:39;;;;;;;4.30;3.60;;;2.70;99.00;;;;;;4941324;28;20520;-79
2022/04/03 07:10:08;;;;;;;4.27;3.87;;;2.80;99.10;;;;;;4953588;28;21024;-78
2022/04/03 07:12:37;;;;;;;5.03;3.03;;;2.80;99.20;;;;;;4940917;29;20506;-79
2022/04/03 07:15:11;;;;;;;4.23;3.03;;;3.00;99.30;;;;;;4940043;28;20527;-78
2022/04/03 07:17:40;;;;;;;3.50;3.10;;;3.10;99.40;;;;;;4939274;29;20461;-78
2022/04/03 07:20:10;;;;;;;4.70;3.80;;;3.20;99.50;;;;;;4939340;29;20470;-78
2022/04/03 07:22:38;;;;;;;3.63;2.97;;;3.30;99.60;;;;;;4939255;29;20475;-78
2022/04/03 07:25:06;;;;;;;3.83;3.23;;;3.30;99.60;;;;;;4935631;29;20480;-78
2022/04/03 07:27:35;;;;;;;6.83;3.27;;;3.40;99.70;;;;;;4939959;29;20960;-79
2022/04/03 07:30:04;;;;;;;4.00;3.33;;;3.40;99.70;;;;;;4938643;29;20475;-78
2022/04/03 07:32:39;;;;;;;3.90;3.40;;;3.40;99.70;;;;;;4938387;29;20454;-78
2022/04/03 07:35:10;;;;;;;3.90;3.10;;;3.40;99.80;;;;;;4949134;29;20481;-78
2022/04/03 07:37:38;;;;;;;3.40;3.10;;;3.40;99.80;;;;;;4939779;29;20490;-79
2022/04/03 07:40:08;;;;;;;5.13;4.13;;;3.50;99.90;;;;;;4939188;29;20514;-78
2022/04/03 07:42:36;;;;;;;5.87;3.53;;;3.50;99.90;;;;;;4937889;29;20483;-78
2022/04/03 07:45:05;;;;;;;3.80;3.50;;;3.50;99.90;;;;;;4938078;29;20471;-78
2022/04/03 07:47:34;;;;;;;3.43;3.13;;;3.50;99.90;;;;;;4950588;29;20449;-78
2022/04/03 07:50:05;;;;;;;4.00;3.00;;;3.50;99.90;;;;;;4953946;29;20494;-78
2022/04/03 07:52:33;;;;;;;5.10;3.70;;;3.60;99.90;;;;;;4937349;29;20455;-79
2022/04/03 07:55:02;;;;;;;6.27;4.60;;;3.60;99.90;;;;;;4937536;29;20519;-78
2022/04/03 07:57:30;;;;;;;4.57;3.30;;;3.50;99.90;;;;;;4935519;29;20455;-78
2022/04/03 07:59:58;;;;;;;7.27;3.93;;;3.50;99.90;;;;;;4937733;29;20906;-78
2022/04/03 08:02:32;;;;;;;4.50;3.73;;;3.50;99.90;;;;;;4939378;29;20476;-78
2022/04/03 08:05:00;;;;;;;9.17;5.30;;;3.40;99.90;;;;;;4937266;29;21019;-79
2022/04/03 08:07:36;;;;;;;5.20;4.70;;;3.40;99.90;;;;;;4938148;29;20455;-79
2022/04/03 08:10:06;;;;;;;5.33;4.83;;;3.40;99.90;;;;;;4941899;29;20444;-78
2022/04/03 08:12:35;;;;;;;5.13;4.57;;;3.40;99.90;;;;;;4955355;28;20468;-77
2022/04/03 08:15:04;;;;;;;6.13;4.73;;;3.40;99.90;;;;;;4957795;29;20510;-77
2022/04/03 08:17:32;;;;;;;4.67;3.80;;;3.40;99.90;;;;;;4957569;29;20460;-78
2022/04/03 08:20:00;;;;;;;5.37;3.70;;;3.50;99.90;;;;;;4948424;29;20455;-77
2022/04/03 08:22:29;;;;;;;4.13;3.73;;;3.70;99.90;;;;;;4938722;29;20456;-78
2022/04/03 08:24:58;;;;;;;5.53;3.87;;;3.80;99.90;;;;;;4943263;29;20499;-77
2022/04/03 08:27:42;;;;;;;4.17;3.77;;;4.00;99.90;;;;;;4939244;29;20463;-78
2022/04/03 08:30:13;;;;;;;4.77;3.63;;;4.30;99.90;;;;;;4939995;29;20494;-78
2022/04/03 08:32:42;;;;;;;5.53;3.80;;;4.60;99.90;;;;;;4954832;28;20444;-78
2022/04/03 08:35:11;;;;;;;5.33;4.00;;;4.90;99.90;;;;;;4937157;29;20495;-78
2022/04/03 08:37:40;;;;;;;4.83;3.50;;;5.20;99.90;;;;;;4940060;29;20506;-79
2022/04/03 08:40:11;;;;;;;4.33;3.93;;;5.50;99.90;;;;;;4938275;29;20883;-80
2022/04/03 08:42:40;;;;;;;3.77;2.90;;;5.70;99.90;;;;;;4925720;29;20558;-79
2022/04/03 08:45:11;;;;;;;4.43;3.80;;;5.90;99.90;;;;;;4939210;29;20500;-78
2022/04/03 08:47:44;;;;;;;4.43;2.60;;;6.10;99.90;;;;;;4939578;29;20440;-78
2022/04/03 08:50:13;;;;;;;3.10;2.80;;;6.20;99.90;;;;;;4937371;29;20874;-77
2022/04/03 08:52:45;;;;;;;5.70;3.13;;;6.20;99.90;;;;;;4935615;29;20463;-78
2022/04/03 08:55:16;;;;;;;4.57;2.90;;;6.20;99.90;;;;;;4938328;29;20491;-79
2022/04/03 08:57:51;;;;;;;4.50;3.20;;;6.10;99.90;;;;;;4936186;29;20511;-76
2022/04/03 09:00:19;;;;;;;3.50;3.00;;;6.00;99.90;;;;;;4936585;29;20547;-77
2022/04/03 09:02:49;;;;;;;3.40;3.10;;;6.10;99.90;;;;;;4938781;29;20457;-79
2022/04/03 09:05:18;;;;;;;3.53;2.70;;;6.20;99.90;;;;;;4948264;29;20489;-78
2022/04/03 09:08:00;;;;;;;3.43;2.73;;;6.30;99.90;;;;;;4937273;29;20994;-78
2022/04/03 09:10:31;;;;;;;4.87;3.27;;;6.30;99.90;;;;;;4938422;29;20450;-78
2022/04/03 09:13:00;;;;;;;2.87;2.60;;;6.40;99.90;;;;;;4936651;29;20465;-78
2022/04/03 09:15:30;;;;;;;7.67;3.63;;;6.50;99.90;;;;;;4938165;29;20560;-77
2022/04/03 09:18:00;;;;;;;4.13;2.50;;;6.60;99.90;;;;;;4938839;29;20455;-79
2022/04/03 09:20:31;;;;;;;2.87;2.67;;;6.70;99.90;;;;;;4938636;29;20965;-79
2022/04/03 09:23:02;;;;;;;3.50;2.90;;;6.80;99.90;;;;;;4937642;29;20530;-79
2022/04/03 09:25:36;;;;;;;3.40;2.57;;;6.80;99.90;;;;;;4927977;29;20471;-78
2022/04/03 09:28:06;;;;;;;3.70;2.30;;;6.90;99.90;;;;;;4931818;29;20465;-78
2022/04/03 09:30:36;;;;;;;5.33;2.43;;;6.90;99.90;;;;;;4935936;29;20478;-77
2022/04/03 09:33:07;;;;;;;4.23;2.70;;;7.10;99.90;;;;;;4935973;29;20481;-77
2022/04/03 09:35:55;;;;;;;3.27;2.20;;;7.20;99.90;;;;;;4927331;29;20475;-77
2022/04/03 09:38:23;;;;;;;4.07;1.80;;;7.30;99.90;;;;;;4916910;29;20447;-77
2022/04/03 09:40:55;;;;;;;4.30;2.20;;;7.30;99.90;;;;;;4916939;29;20554;-77
2022/04/03 09:43:25;;;;;;;4.03;2.50;;;7.30;99.90;;;;;;4934600;29;20468;-77
2022/04/03 09:45:55;;;;;;;4.70;2.67;;;7.20;99.90;;;;;;4937515;29;20476;-76
2022/04/03 09:48:29;;;;;;;5.03;2.70;;;7.20;99.90;;;;;;4937961;29;20453;-77
2022/04/03 09:50:59;;;;;;;3.67;2.20;;;7.10;99.90;;;;;;4938493;29;20556;-77
2022/04/03 09:53:28;;;;;;;2.83;1.80;;;7.00;99.90;;;;;;4940410;29;20514;-77
2022/04/03 09:55:58;;;;;;;3.70;1.63;;;6.90;99.90;;;;;;4920568;29;20477;-77
2022/04/03 09:58:26;;;;;;;4.23;1.90;;;6.70;99.90;;;;;;4937872;29;20530;-78
2022/04/03 10:00:54;;;;;;;3.67;1.87;;;6.50;99.90;;;;;;4938640;29;20486;-78
2022/04/03 10:03:27;;;;;;;5.97;2.50;;;6.50;99.90;;;;;;4940085;29;20484;-78
2022/04/03 10:05:56;;;;;;;4.20;2.43;;;6.50;99.90;;;;;;4926300;29;20487;-77
2022/04/03 10:08:25;;;;;;;4.33;2.50;;;6.50;99.90;;;;;;4925699;29;20454;-77
2022/04/03 10:10:55;;;;;;;4.60;2.13;;;6.60;99.90;;;;;;4938822;29;20458;-77
2022/04/03 10:13:25;;;;;;;3.57;2.00;;;6.70;99.90;;;;;;4932062;29;20845;-76
2022/04/03 10:15:54;;;;;;;3.00;1.97;;;6.70;99.90;;;;;;4939494;29;20996;-76
2022/04/03 10:18:22;;;;;;;2.90;2.50;;;6.80;99.90;;;;;;4939721;29;20545;-77
2022/04/03 10:20:51;;;;;;;2.53;1.87;;;6.80;99.90;;;;;;4939503;29;20462;-78
2022/04/03 10:23:22;;;;;;;3.47;1.70;;;6.70;99.90;;;;;;4927768;29;20546;-77
2022/04/03 10:25:53;;;;;;;2.70;1.53;;;6.60;99.90;;;;;;4939338;29;20469;-76
2022/04/03 10:28:25;;;;;;;2.80;1.70;;;6.50;99.90;;;;;;4933701;29;20543;-77
2022/04/03 10:30:59;;;;;;;3.43;2.00;;;6.40;99.90;;;;;;4938307;29;20564;-76
2022/04/03 10:33:37;;;;;;;1.77;1.37;;;6.30;99.90;;;;;;4939361;29;20868;-77
2022/04/03 10:36:07;;;;;;;2.03;1.20;;;6.20;99.90;;;;;;4938165;29;20489;-77
2022/04/03 10:38:37;;;;;;;2.40;1.50;;;6.20;99.90;;;;;;4938418;29;20492;-77
2022/04/03 10:41:06;;;;;;;3.03;1.90;;;6.10;99.90;;;;;;4934106;29;20457;-77
2022/04/03 10:43:40;;;;;;;3.13;2.27;;;6.10;99.90;;;;;;4938003;29;20499;-77
2022/04/03 10:46:09;;;;;;;2.00;1.70;;;6.10;99.90;;;;;;4932253;29;20493;-77
2022/04/03 10:48:37;;;;;;;2.87;1.83;;;6.10;99.90;;;;;;4934991;29;20456;-77
2022/04/03 10:51:11;;;;;;;2.80;1.87;;;6.20;99.90;;;;;;4937076;29;20467;-77
2022/04/03 10:53:41;;;;;;;2.53;1.47;;;6.30;99.90;;;;;;4940314;29;20466;-77
2022/04/03 10:56:20;;;;;;;1.90;1.60;;;6.30;99.90;;;;;;4939160;29;20833;-77
2022/04/03 10:58:51;;;;;;;2.40;1.10;;;6.40;99.90;;;;;;4938401;29;20458;-77
2022/04/03 11:01:25;;;;;;;2.13;1.10;;;6.50;99.90;;;;;;4933029;29;21019;-77
2022/04/03 11:03:59;;;;;;;2.97;1.73;;;6.60;99.90;;;;;;4919178;29;20506;-77
2022/04/03 11:06:38;;;;;;;2.33;1.30;;;6.70;99.90;;;;;;4937701;29;20518;-77
2022/04/03 11:09:14;;;;;;;3.50;2.17;;;6.80;99.90;;;;;;4937836;29;20450;-76
2022/04/03 11:11:59;;;;;;;3.30;2.60;;;6.80;99.90;;;;;;4954022;28;20544;-77
2022/04/03 11:14:52;;;;;;;3.53;2.20;;;6.90;99.90;;;;;;4936860;29;20482;-77
2022/04/03 11:17:48;;;;;;;4.73;2.50;;;7.00;99.90;;;;;;4939226;29;20881;-77
2022/04/03 11:20:31;;;;;;;3.30;2.40;;;7.10;99.90;;;;;;4937142;29;20526;-77
2022/04/03 11:22:59;;;;;;;4.43;2.10;;;7.20;99.90;;;;;;4937335;29;20517;-77
2022/04/03 11:25:28;;;;;;;2.93;2.23;;;7.20;99.90;;;;;;4938450;29;20487;-77
2022/04/03 11:27:56;;;;;;;5.17;2.00;;;7.30;99.90;;;;;;4937292;29;20485;-77
2022/04/03 11:30:27;;;;;;;4.23;2.23;;;7.40;99.90;;;;;;4936771;29;20895;-77
2022/04/03 11:32:55;;;;;;;4.07;2.40;;;7.50;99.90;;;;;;4937402;29;20457;-77
2022/04/03 11:35:37;;;;;;;3.90;2.23;;;7.50;99.90;;;;;;4936964;29;20477;-76
2022/04/03 11:38:05;;;;;;;4.60;2.87;;;7.50;99.90;;;;;;4937406;29;20983;-77
2022/04/03 11:40:39;;;;;;;3.83;2.67;;;7.40;99.90;;;;;;4937287;29;21054;-76
2022/04/03 11:43:14;;;;;;;4.03;1.77;;;7.40;99.90;;;;;;4937554;29;20459;-76
2022/04/03 11:45:55;;;;;;;2.97;1.90;;;7.40;99.90;;;;;;4936356;29;20500;-75
2022/04/03 11:48:26;;;;;;;5.83;1.90;;;7.50;99.90;;;;;;4937036;29;20874;-77
2022/04/03 11:51:13;;;;;;;3.00;1.70;;;7.50;99.90;;;;;;4936938;29;20454;-77
2022/04/03 11:53:43;;;;;;;3.73;2.20;;;7.50;99.90;;;;;;4936823;29;20483;-77
2022/04/03 11:56:13;;;;;;;4.13;2.30;;;7.50;99.90;;;;;;4937223;29;20884;-77
2022/04/03 11:58:43;;;;;;;3.00;2.47;;;7.60;99.90;;;;;;4936477;29;20827;-77
2022/04/03 12:01:13;;;;;;;4.60;2.83;;;7.70;99.90;;;;;;4937194;29;20454;-77
2022/04/03 12:03:42;;;;;;;3.13;2.20;;;7.80;99.90;;;;;;4934428;29;20487;-78
2022/04/03 12:06:15;;;;;;;2.93;1.97;;;7.80;99.90;;;;;;4948532;29;20494;-77
2022/04/03 12:08:50;;;;;;;3.83;2.63;;;7.80;99.90;;;;;;4936757;29;20883;-77
2022/04/03 12:11:24;;;;;;;3.70;2.80;;;7.80;99.90;;;;;;4936042;29;20450;-77
2022/04/03 12:13:54;;;;;;;4.60;2.77;;;7.80;99.90;;;;;;4936856;29;20450;-76
2022/04/03 12:16:26;;;;;;;5.87;2.70;;;7.70;99.90;;;;;;4937759;29;20982;-76
2022/04/03 12:18:56;;;;;;;6.57;3.47;;;7.70;99.90;;;;;;4937931;29;20436;-77
2022/04/03 12:21:37;;;;;;;3.53;2.80;;;7.70;99.90;;;;;;4937736;29;20486;-76
2022/04/03 12:24:08;;;;;;;4.27;3.97;;;7.70;99.90;;;;;;4936083;29;20498;-77
2022/04/03 12:26:44;;;;;;;4.00;2.00;;;7.70;99.90;;;;;;4945471;28;20503;-76
2022/04/03 12:29:14;;;;;;;4.03;2.20;;;7.70;99.90;;;;;;4936377;29;20980;-78
2022/04/03 12:31:44;;;;;;;3.97;2.57;;;7.70;99.90;;;;;;4936023;29;20933;-76
2022/04/03 12:34:13;;;;;;;4.03;2.40;;;7.80;99.90;;;;;;4952269;28;20494;-77
2022/04/03 12:36:45;;;;;;;6.30;3.00;;;7.80;99.90;;;;;;4917161;29;20454;-77
2022/04/03 12:39:34;;;;;;;3.50;2.20;;;7.80;99.90;;;;;;4917158;29;20472;-77
2022/04/03 12:42:17;;;;;;;3.70;1.83;;;7.90;99.90;;;;;;4934005;29;20869;-77
2022/04/03 12:44:57;;;;;;;3.47;1.83;;;8.00;99.90;;;;;;4935863;29;20479;-77
2022/04/03 12:47:40;;;;;;;4.30;2.20;;;8.10;99.90;;;;;;4937302;29;20458;-77
2022/04/03 12:50:14;;;;;;;4.33;1.43;;;8.20;99.90;;;;;;4935914;29;21043;-78
2022/04/03 12:52:44;;;;;;;3.70;1.93;;;8.20;99.90;;;;;;4936112;29;20900;-77
2022/04/03 12:55:49;;;;;;;3.63;1.90;;;8.10;99.90;;;;;;4951892;29;21000;-77
2022/04/03 12:58:28;;;;;;;2.97;1.67;;;8.10;99.90;;;;;;4878887;29;20999;-77
2022/04/03 13:01:10;;;;;;;3.80;2.30;;;7.90;99.90;;;;;;4927965;29;20522;-76
2022/04/03 13:03:44;;;;;;;2.77;1.40;;;7.70;99.90;;;;;;4933613;29;20557;-76
2022/04/03 13:06:14;;;;;;;3.40;1.90;;;7.60;99.90;;;;;;4918167;29;20482;-76
2022/04/03 13:08:48;;;;;;;3.53;1.97;;;7.40;99.90;;;;;;4917315;29;20961;-77
2022/04/03 13:11:31;;;;;;;4.20;2.13;;;7.30;99.90;;;;;;4917516;29;20958;-77
2022/04/03 13:14:17;;;;;;;4.43;2.63;;;7.20;99.90;;;;;;4952432;29;20868;-76
2022/04/03 13:16:47;;;;;;;3.93;2.93;;;7.20;99.90;;;;;;4955251;29;20466;-76